Terminal Aerodrome Forecast
Issued by NWS

Home | Current Version | Previous Version | Text Only | Print | Product List | Glossary On
Versions: 1 2 3 4 5 6 7 8 9 10 11 12 13 14 15 16 17 18 19 20
000
FTUS43 KGRR 271600 AAC
TAFJXN
TAF AMD
KJXN 271602Z 2716/2812 21014G22KT 4SM -DZ BR OVC006
     FM272100 23014G22KT P6SM OVC025
     FM272200 26011KT P6SM OVC025=

USA.gov is the U.S. government's official web portal to all federal, state and local government web resources and services.